sensor_id;sensor_type;location;lat;lon;timestamp;pressure;altitude;pressure_sealevel;temperature;humidity
54936;BME280;40838;50.676;7.838;2023-04-20T00:01:08;98605.09;;;-4.72;100.00
54936;BME280;40838;50.676;7.838;2023-04-20T00:03:35;98608.38;;;-4.78;100.00
54936;BME280;40838;50.676;7.838;2023-04-20T00:06:02;98598.31;;;-4.81;100.00
54936;BME280;40838;50.676;7.838;2023-04-20T00:08:31;98602.72;;;-4.81;100.00
54936;BME280;40838;50.676;7.838;2023-04-20T00:10:58;98591.19;;;-4.79;100.00
54936;BME280;40838;50.676;7.838;2023-04-20T00:13:25;98595.13;;;-4.83;100.00
54936;BME280;40838;50.676;7.838;2023-04-20T00:15:52;98587.44;;;-4.76;100.00
54936;BME280;40838;50.676;7.838;2023-04-20T00:18:18;98579.81;;;-4.86;100.00
54936;BME280;40838;50.676;7.838;2023-04-20T00:20:45;98571.56;;;-4.90;100.00
54936;BME280;40838;50.676;7.838;2023-04-20T00:23:12;98571.44;;;-4.96;100.00
54936;BME280;40838;50.676;7.838;2023-04-20T00:25:40;98559.56;;;-4.91;100.00
54936;BME280;40838;50.676;7.838;2023-04-20T00:28:07;98551.72;;;-4.82;100.00
54936;BME280;40838;50.676;7.838;2023-04-20T00:30:33;98551.09;;;-4.84;100.00
54936;BME280;40838;50.676;7.838;2023-04-20T00:33:01;98542.78;;;-4.80;100.00
54936;BME280;40838;50.676;7.838;2023-04-20T00:35:28;98542.78;;;-4.80;100.00
54936;BME280;40838;50.676;7.838;2023-04-20T00:37:54;98534.97;;;-4.80;100.00
54936;BME280;40838;50.676;7.838;2023-04-20T00:40:24;98532.94;;;-4.70;100.00
54936;BME280;40838;50.676;7.838;2023-04-20T00:42:52;98527.06;;;-4.64;100.00
54936;BME280;40838;50.676;7.838;2023-04-20T00:45:19;98518.44;;;-4.64;100.00
54936;BME280;40838;50.676;7.838;2023-04-20T00:47:46;98519.66;;;-4.52;100.00
54936;BME280;40838;50.676;7.838;2023-04-20T00:50:14;98513.41;;;-4.43;100.00
54936;BME280;40838;50.676;7.838;2023-04-20T00:52:41;98510.28;;;-4.38;100.00
54936;BME280;40838;50.676;7.838;2023-04-20T00:55:08;98510.38;;;-4.31;100.00
54936;BME280;40838;50.676;7.838;2023-04-20T00:57:37;98505.94;;;-4.08;100.00
54936;BME280;40838;50.676;7.838;2023-04-20T01:00:08;98506.94;;;-4.09;100.00
54936;BME280;40838;50.676;7.838;2023-04-20T01:02:40;98494.78;;;-4.16;100.00
54936;BME280;40838;50.676;7.838;2023-04-20T01:05:07;98496.41;;;-4.30;100.00
54936;BME280;40838;50.676;7.838;2023-04-20T01:07:34;98495.22;;;-4.28;100.00
54936;BME280;40838;50.676;7.838;2023-04-20T01:10:01;98487.34;;;-4.05;100.00
54936;BME280;40838;50.676;7.838;2023-04-20T01:12:29;98493.19;;;-3.88;100.00
54936;BME280;40838;50.676;7.838;2023-04-20T01:14:56;98499.03;;;-3.86;100.00
54936;BME280;40838;50.676;7.838;2023-04-20T01:17:24;98485.31;;;-3.94;100.00
54936;BME280;40838;50.676;7.838;2023-04-20T01:19:51;98477.47;;;-3.14;100.00
54936;BME280;40838;50.676;7.838;2023-04-20T01:22:21;98472.78;;;-3.55;100.00
54936;BME280;40838;50.676;7.838;2023-04-20T01:24:47;98475.88;;;-3.66;100.00
54936;BME280;40838;50.676;7.838;2023-04-20T01:27:14;98459.84;;;-3.33;100.00
54936;BME280;40838;50.676;7.838;2023-04-20T01:29:42;98465.00;;;-3.18;100.00
54936;BME280;40838;50.676;7.838;2023-04-20T01:32:09;98454.03;;;-2.92;100.00
54936;BME280;40838;50.676;7.838;2023-04-20T01:34:36;98453.16;;;-2.78;100.00
54936;BME280;40838;50.676;7.838;2023-04-20T01:37:03;98451.06;;;-2.61;100.00
54936;BME280;40838;50.676;7.838;2023-04-20T01:39:34;98449.13;;;-2.52;100.00
54936;BME280;40838;50.676;7.838;2023-04-20T01:42:01;98446.41;;;-2.44;100.00
54936;BME280;40838;50.676;7.838;2023-04-20T01:44:28;98439.97;;;-2.48;100.00
54936;BME280;40838;50.676;7.838;2023-04-20T01:46:54;98441.19;;;-2.44;100.00
54936;BME280;40838;50.676;7.838;2023-04-20T01:49:21;98437.81;;;-2.66;100.00
54936;BME280;40838;50.676;7.838;2023-04-20T01:51:50;98431.53;;;-2.93;100.00
54936;BME280;40838;50.676;7.838;2023-04-20T01:54:17;98427.53;;;-2.96;100.00
54936;BME280;40838;50.676;7.838;2023-04-20T01:56:45;98427.56;;;-3.11;100.00
54936;BME280;40838;50.676;7.838;2023-04-20T01:59:14;98424.97;;;-3.32;100.00
54936;BME280;40838;50.676;7.838;2023-04-20T02:01:43;98424.22;;;-3.26;100.00
54936;BME280;40838;50.676;7.838;2023-04-20T02:04:10;98421.75;;;-3.13;100.00
54936;BME280;40838;50.676;7.838;2023-04-20T02:06:38;98426.53;;;-3.16;100.00
54936;BME280;40838;50.676;7.838;2023-04-20T02:09:08;98424.97;;;-3.11;100.00
54936;BME280;40838;50.676;7.838;2023-04-20T02:11:35;98417.59;;;-3.07;100.00
54936;BME280;40838;50.676;7.838;2023-04-20T02:14:06;98420.06;;;-2.99;100.00
54936;BME280;40838;50.676;7.838;2023-04-20T02:16:33;98420.31;;;-3.37;100.00
54936;BME280;40838;50.676;7.838;2023-04-20T02:19:00;98419.50;;;-3.37;100.00
54936;BME280;40838;50.676;7.838;2023-04-20T02:21:28;98419.31;;;-3.14;100.00
54936;BME280;40838;50.676;7.838;2023-04-20T02:23:54;98408.22;;;-3.01;100.00
54936;BME280;40838;50.676;7.838;2023-04-20T02:26:21;98410.44;;;-2.77;100.00
54936;BME280;40838;50.676;7.838;2023-04-20T02:28:48;98413.34;;;-2.65;100.00
54936;BME280;40838;50.676;7.838;2023-04-20T02:31:16;98403.78;;;-2.79;100.00
54936;BME280;40838;50.676;7.838;2023-04-20T02:33:43;98402.19;;;-2.80;100.00
54936;BME280;40838;50.676;7.838;2023-04-20T02:36:12;98399.34;;;-2.86;100.00
54936;BME280;40838;50.676;7.838;2023-04-20T02:38:39;98391.59;;;-3.00;100.00
54936;BME280;40838;50.676;7.838;2023-04-20T02:41:06;98398.63;;;-3.59;100.00
54936;BME280;40838;50.676;7.838;2023-04-20T02:43:33;98398.28;;;-3.34;100.00
54936;BME280;40838;50.676;7.838;2023-04-20T02:46:02;98396.50;;;-3.12;100.00
54936;BME280;40838;50.676;7.838;2023-04-20T02:48:30;98391.09;;;-3.11;100.00
54936;BME280;40838;50.676;7.838;2023-04-20T02:50:58;98384.31;;;-3.05;100.00
54936;BME280;40838;50.676;7.838;2023-04-20T02:53:31;98379.16;;;-2.77;100.00
54936;BME280;40838;50.676;7.838;2023-04-20T02:56:27;98379.00;;;-2.69;100.00
54936;BME280;40838;50.676;7.838;2023-04-20T02:58:58;98373.97;;;-2.42;100.00
54936;BME280;40838;50.676;7.838;2023-04-20T03:01:42;98368.16;;;-2.38;100.00
54936;BME280;40838;50.676;7.838;2023-04-20T03:04:16;98372.63;;;-2.31;100.00
54936;BME280;40838;50.676;7.838;2023-04-20T03:07:02;98369.31;;;-2.12;100.00
54936;BME280;40838;50.676;7.838;2023-04-20T03:09:33;98359.78;;;-1.85;100.00
54936;BME280;40838;50.676;7.838;2023-04-20T03:12:18;98355.00;;;-1.68;100.00
54936;BME280;40838;50.676;7.838;2023-04-20T03:14:55;98353.47;;;-1.42;100.00
54936;BME280;40838;50.676;7.838;2023-04-20T03:17:30;98355.69;;;-1.39;100.00
54936;BME280;40838;50.676;7.838;2023-04-20T03:19:59;98350.28;;;-1.31;100.00
54936;BME280;40838;50.676;7.838;2023-04-20T03:22:31;98352.50;;;-1.28;100.00
54936;BME280;40838;50.676;7.838;2023-04-20T03:25:00;98355.31;;;-1.16;100.00
54936;BME280;40838;50.676;7.838;2023-04-20T03:27:46;98339.81;;;-1.18;100.00
54936;BME280;40838;50.676;7.838;2023-04-20T03:30:13;98339.81;;;-1.25;100.00
54936;BME280;40838;50.676;7.838;2023-04-20T03:32:42;98341.22;;;-1.22;100.00
54936;BME280;40838;50.676;7.838;2023-04-20T03:35:11;98343.22;;;-1.24;100.00
54936;BME280;40838;50.676;7.838;2023-04-20T03:37:38;98342.03;;;-1.28;100.00
54936;BME280;40838;50.676;7.838;2023-04-20T03:40:07;98340.03;;;-1.19;100.00
54936;BME280;40838;50.676;7.838;2023-04-20T03:42:34;98342.84;;;-1.21;100.00
54936;BME280;40838;50.676;7.838;2023-04-20T03:45:03;98336.41;;;-1.18;100.00
54936;BME280;40838;50.676;7.838;2023-04-20T03:47:32;98340.81;;;-1.32;100.00
54936;BME280;40838;50.676;7.838;2023-04-20T03:49:59;98336.22;;;-1.17;100.00
54936;BME280;40838;50.676;7.838;2023-04-20T03:52:27;98337.38;;;-1.46;100.00
54936;BME280;40838;50.676;7.838;2023-04-20T03:54:55;98341.00;;;-1.34;100.00
54936;BME280;40838;50.676;7.838;2023-04-20T03:57:21;98338.41;;;-1.34;100.00
54936;BME280;40838;50.676;7.838;2023-04-20T03:59:49;98327.53;;;-1.51;100.00
54936;BME280;40838;50.676;7.838;2023-04-20T04:02:20;98327.56;;;-1.37;100.00
54936;BME280;40838;50.676;7.838;2023-04-20T04:04:47;98337.00;;;-1.36;100.00
54936;BME280;40838;50.676;7.838;2023-04-20T04:07:14;98333.78;;;-1.32;100.00
54936;BME280;40838;50.676;7.838;2023-04-20T04:09:44;98328.94;;;-1.41;100.00
54936;BME280;40838;50.676;7.838;2023-04-20T04:12:11;98334.97;;;-1.48;100.00
54936;BME280;40838;50.676;7.838;2023-04-20T04:14:39;98335.56;;;-1.46;100.00
54936;BME280;40838;50.676;7.838;2023-04-20T04:17:07;98331.75;;;-1.43;100.00
54936;BME280;40838;50.676;7.838;2023-04-20T04:19:38;98329.31;;;-1.58;100.00
54936;BME280;40838;50.676;7.838;2023-04-20T04:22:05;98335.34;;;-1.57;100.00
54936;BME280;40838;50.676;7.838;2023-04-20T04:24:36;98332.50;;;-1.69;100.00
54936;BME280;40838;50.676;7.838;2023-04-20T04:27:09;98338.13;;;-1.72;100.00
54936;BME280;40838;50.676;7.838;2023-04-20T04:29:45;98328.50;;;-1.65;100.00
54936;BME280;40838;50.676;7.838;2023-04-20T04:32:17;98325.28;;;-1.67;100.00
54936;BME280;40838;50.676;7.838;2023-04-20T04:34:44;98330.28;;;-1.79;100.00
54936;BME280;40838;50.676;7.838;2023-04-20T04:37:12;98325.06;;;-1.79;100.00
54936;BME280;40838;50.676;7.838;2023-04-20T04:39:45;98327.06;;;-1.74;100.00
54936;BME280;40838;50.676;7.838;2023-04-20T04:42:19;98329.03;;;-1.83;100.00
54936;BME280;40838;50.676;7.838;2023-04-20T04:44:47;98325.06;;;-1.72;100.00
54936;BME280;40838;50.676;7.838;2023-04-20T04:47:23;98327.25;;;-1.82;100.00
54936;BME280;40838;50.676;7.838;2023-04-20T04:49:50;98325.81;;;-1.85;100.00
54936;BME280;40838;50.676;7.838;2023-04-20T04:52:17;98327.38;;;-2.04;100.00
54936;BME280;40838;50.676;7.838;2023-04-20T04:54:44;98326.97;;;-2.01;100.00
54936;BME280;40838;50.676;7.838;2023-04-20T04:57:11;98324.19;;;-1.99;100.00
54936;BME280;40838;50.676;7.838;2023-04-20T04:59:40;98327.00;;;-1.94;100.00
54936;BME280;40838;50.676;7.838;2023-04-20T05:02:07;98329.34;;;-2.13;100.00
54936;BME280;40838;50.676;7.838;2023-04-20T05:04:34;98328.19;;;-2.03;100.00
54936;BME280;40838;50.676;7.838;2023-04-20T05:07:00;98327.38;;;-2.04;100.00
54936;BME280;40838;50.676;7.838;2023-04-20T05:09:27;98331.34;;;-2.15;100.00
54936;BME280;40838;50.676;7.838;2023-04-20T05:11:58;98330.75;;;-2.17;100.00
54936;BME280;40838;50.676;7.838;2023-04-20T05:14:25;98332.56;;;-2.10;100.00
54936;BME280;40838;50.676;7.838;2023-04-20T05:16:53;98339.03;;;-2.00;100.00
54936;BME280;40838;50.676;7.838;2023-04-20T05:19:20;98334.75;;;-2.14;100.00
54936;BME280;40838;50.676;7.838;2023-04-20T05:21:47;98337.94;;;-2.25;100.00
54936;BME280;40838;50.676;7.838;2023-04-20T05:24:13;98344.66;;;-2.38;100.00
54936;BME280;40838;50.676;7.838;2023-04-20T05:26:42;98343.81;;;-2.10;100.00
54936;BME280;40838;50.676;7.838;2023-04-20T05:29:08;98346.72;;;-2.33;100.00
54936;BME280;40838;50.676;7.838;2023-04-20T05:31:35;98341.00;;;-2.08;100.00
54936;BME280;40838;50.676;7.838;2023-04-20T05:34:03;98343.78;;;-2.17;100.00
54936;BME280;40838;50.676;7.838;2023-04-20T05:36:30;98342.63;;;-2.07;100.00
54936;BME280;40838;50.676;7.838;2023-04-20T05:38:58;98349.28;;;-1.98;100.00
54936;BME280;40838;50.676;7.838;2023-04-20T05:41:25;98332.06;;;-1.86;100.00
54936;BME280;40838;50.676;7.838;2023-04-20T05:43:52;98344.25;;;-2.00;100.00
54936;BME280;40838;50.676;7.838;2023-04-20T05:46:19;98337.50;;;-1.81;100.00
54936;BME280;40838;50.676;7.838;2023-04-20T05:48:46;98338.03;;;-1.99;100.00
54936;BME280;40838;50.676;7.838;2023-04-20T05:51:14;98334.88;;;-2.29;100.00
54936;BME280;40838;50.676;7.838;2023-04-20T05:53:41;98334.81;;;-2.01;100.00
54936;BME280;40838;50.676;7.838;2023-04-20T05:56:08;98331.66;;;-1.89;100.00
54936;BME280;40838;50.676;7.838;2023-04-20T05:58:35;98337.44;;;-2.01;100.00
54936;BME280;40838;50.676;7.838;2023-04-20T06:01:03;98333.88;;;-1.86;100.00
54936;BME280;40838;50.676;7.838;2023-04-20T06:03:30;98338.25;;;-1.94;100.00
54936;BME280;40838;50.676;7.838;2023-04-20T06:05:58;98340.25;;;-1.96;100.00
54936;BME280;40838;50.676;7.838;2023-04-20T06:08:26;98332.16;;;-1.39;100.00
54936;BME280;40838;50.676;7.838;2023-04-20T06:10:53;98334.19;;;-1.28;100.00
54936;BME280;40838;50.676;7.838;2023-04-20T06:13:21;98339.94;;;-1.73;100.00
54936;BME280;40838;50.676;7.838;2023-04-20T06:15:48;98341.78;;;-1.53;100.00
54936;BME280;40838;50.676;7.838;2023-04-20T06:18:17;98335.00;;;-1.01;100.00
54936;BME280;40838;50.676;7.838;2023-04-20T06:20:44;98333.97;;;-0.80;100.00
54936;BME280;40838;50.676;7.838;2023-04-20T06:23:11;98334.81;;;-0.08;100.00
54936;BME280;40838;50.676;7.838;2023-04-20T06:25:39;98329.78;;;0.04;100.00
54936;BME280;40838;50.676;7.838;2023-04-20T06:28:06;98321.53;;;-0.06;100.00
54936;BME280;40838;50.676;7.838;2023-04-20T06:30:36;98325.41;;;-0.22;100.00
54936;BME280;40838;50.676;7.838;2023-04-20T06:33:03;98315.75;;;0.62;100.00
54936;BME280;40838;50.676;7.838;2023-04-20T06:35:30;98321.69;;;0.05;100.00
54936;BME280;40838;50.676;7.838;2023-04-20T06:37:58;98320.50;;;0.40;100.00
54936;BME280;40838;50.676;7.838;2023-04-20T06:40:27;98320.03;;;0.18;100.00
54936;BME280;40838;50.676;7.838;2023-04-20T06:42:55;98325.03;;;-0.39;100.00
54936;BME280;40838;50.676;7.838;2023-04-20T06:45:22;98316.53;;;-0.21;100.00
54936;BME280;40838;50.676;7.838;2023-04-20T06:47:49;98316.22;;;-0.51;100.00
54936;BME280;40838;50.676;7.838;2023-04-20T06:50:16;98318.28;;;-0.87;100.00
54936;BME280;40838;50.676;7.838;2023-04-20T06:52:43;98322.91;;;-1.09;100.00
54936;BME280;40838;50.676;7.838;2023-04-20T06:55:12;98325.53;;;-1.22;100.00
54936;BME280;40838;50.676;7.838;2023-04-20T06:57:39;98319.72;;;-0.91;100.00
54936;BME280;40838;50.676;7.838;2023-04-20T07:00:10;98300.53;;;-0.58;100.00
54936;BME280;40838;50.676;7.838;2023-04-20T07:02:41;98308.97;;;0.16;100.00
54936;BME280;40838;50.676;7.838;2023-04-20T07:05:09;98310.44;;;-0.02;100.00
54936;BME280;40838;50.676;7.838;2023-04-20T07:07:36;98302.47;;;0.25;100.00
54936;BME280;40838;50.676;7.838;2023-04-20T07:10:03;98314.06;;;-0.10;100.00
54936;BME280;40838;50.676;7.838;2023-04-20T07:12:30;98305.06;;;0.88;100.00
54936;BME280;40838;50.676;7.838;2023-04-20T07:15:00;98312.28;;;-0.09;100.00
54936;BME280;40838;50.676;7.838;2023-04-20T07:17:29;98309.06;;;-1.03;100.00
54936;BME280;40838;50.676;7.838;2023-04-20T07:19:55;98311.81;;;-0.58;100.00
54936;BME280;40838;50.676;7.838;2023-04-20T07:22:23;98311.28;;;-0.21;100.00
54936;BME280;40838;50.676;7.838;2023-04-20T07:24:50;98302.00;;;-0.04;100.00
54936;BME280;40838;50.676;7.838;2023-04-20T07:27:17;98311.34;;;0.17;100.00
54936;BME280;40838;50.676;7.838;2023-04-20T07:29:44;98309.22;;;0.39;100.00
54936;BME280;40838;50.676;7.838;2023-04-20T07:32:10;98302.81;;;0.35;100.00
54936;BME280;40838;50.676;7.838;2023-04-20T07:34:39;98297.94;;;0.70;100.00
54936;BME280;40838;50.676;7.838;2023-04-20T07:37:06;98303.97;;;1.21;100.00
54936;BME280;40838;50.676;7.838;2023-04-20T07:39:32;98307.22;;;0.03;100.00
54936;BME280;40838;50.676;7.838;2023-04-20T07:42:01;98312.97;;;0.18;100.00
54936;BME280;40838;50.676;7.838;2023-04-20T07:44:29;98307.34;;;0.78;100.00
54936;BME280;40838;50.676;7.838;2023-04-20T07:46:55;98310.69;;;0.35;100.00
54936;BME280;40838;50.676;7.838;2023-04-20T07:49:23;98310.16;;;0.51;100.00
54936;BME280;40838;50.676;7.838;2023-04-20T07:51:51;98311.91;;;0.89;100.00
54936;BME280;40838;50.676;7.838;2023-04-20T07:54:18;98312.66;;;0.71;100.00
54936;BME280;40838;50.676;7.838;2023-04-20T07:56:45;98313.50;;;0.65;100.00
54936;BME280;40838;50.676;7.838;2023-04-20T07:59:12;98312.75;;;0.20;100.00
54936;BME280;40838;50.676;7.838;2023-04-20T08:01:39;98320.47;;;0.08;100.00
54936;BME280;40838;50.676;7.838;2023-04-20T08:04:06;98314.81;;;0.11;100.00
54936;BME280;40838;50.676;7.838;2023-04-20T08:06:33;98312.69;;;0.33;100.00
54936;BME280;40838;50.676;7.838;2023-04-20T08:09:01;98312.88;;;-0.07;100.00
54936;BME280;40838;50.676;7.838;2023-04-20T08:11:28;98311.78;;;0.14;100.00
54936;BME280;40838;50.676;7.838;2023-04-20T08:13:55;98308.34;;;0.13;100.00
54936;BME280;40838;50.676;7.838;2023-04-20T08:16:22;98315.13;;;0.28;100.00
54936;BME280;40838;50.676;7.838;2023-04-20T08:18:48;98313.34;;;0.22;100.00
54936;BME280;40838;50.676;7.838;2023-04-20T08:21:15;98306.84;;;0.31;100.00
54936;BME280;40838;50.676;7.838;2023-04-20T08:23:42;98316.44;;;0.05;100.00
54936;BME280;40838;50.676;7.838;2023-04-20T08:26:14;98320.13;;;-0.09;100.00
54936;BME280;40838;50.676;7.838;2023-04-20T08:28:42;98310.59;;;0.10;100.00
54936;BME280;40838;50.676;7.838;2023-04-20T08:31:10;98309.75;;;0.16;100.00
54936;BME280;40838;50.676;7.838;2023-04-20T08:33:38;98316.69;;;-0.10;100.00
54936;BME280;40838;50.676;7.838;2023-04-20T08:36:05;98307.53;;;0.51;100.00
54936;BME280;40838;50.676;7.838;2023-04-20T08:38:32;98302.19;;;0.96;100.00
54936;BME280;40838;50.676;7.838;2023-04-20T08:40:59;98298.53;;;0.97;100.00
54936;BME280;40838;50.676;7.838;2023-04-20T08:43:27;98311.34;;;0.17;100.00
54936;BME280;40838;50.676;7.838;2023-04-20T08:45:57;98295.72;;;0.92;100.00
54936;BME280;40838;50.676;7.838;2023-04-20T08:48:25;98305.84;;;0.32;100.00
54936;BME280;40838;50.676;7.838;2023-04-20T08:50:52;98303.53;;;0.10;100.00
54936;BME280;40838;50.676;7.838;2023-04-20T08:53:20;98297.09;;;0.13;100.00
54936;BME280;40838;50.676;7.838;2023-04-20T08:55:48;98291.66;;;0.71;100.00
54936;BME280;40838;50.676;7.838;2023-04-20T08:58:16;98296.50;;;0.99;100.00
54936;BME280;40838;50.676;7.838;2023-04-20T09:00:48;98305.56;;;0.47;100.00
54936;BME280;40838;50.676;7.838;2023-04-20T09:03:15;98304.34;;;0.11;100.00
54936;BME280;40838;50.676;7.838;2023-04-20T09:05:43;98304.03;;;-0.06;100.00
54936;BME280;40838;50.676;7.838;2023-04-20T09:08:11;98312.41;;;-0.49;100.00
54936;BME280;40838;50.676;7.838;2023-04-20T09:10:39;98323.75;;;-0.03;100.00
54936;BME280;40838;50.676;7.838;2023-04-20T09:13:07;98304.22;;;0.31;100.00
54936;BME280;40838;50.676;7.838;2023-04-20T09:15:34;98300.94;;;0.42;100.00
54936;BME280;40838;50.676;7.838;2023-04-20T09:18:12;98298.31;;;0.74;100.00
54936;BME280;40838;50.676;7.838;2023-04-20T09:20:40;98303.78;;;1.41;100.00
54936;BME280;40838;50.676;7.838;2023-04-20T09:23:11;98299.94;;;1.18;100.00
54936;BME280;40838;50.676;7.838;2023-04-20T09:25:38;98301.56;;;0.94;100.00
54936;BME280;40838;50.676;7.838;2023-04-20T09:28:05;98300.59;;;0.64;100.00
54936;BME280;40838;50.676;7.838;2023-04-20T09:30:37;98300.44;;;0.58;100.00
54936;BME280;40838;50.676;7.838;2023-04-20T09:33:04;98315.66;;;1.00;100.00
54936;BME280;40838;50.676;7.838;2023-04-20T09:35:34;98306.19;;;0.42;100.00
54936;BME280;40838;50.676;7.838;2023-04-20T09:38:03;98303.25;;;0.57;100.00
54936;BME280;40838;50.676;7.838;2023-04-20T09:40:31;98311.97;;;0.19;100.00
54936;BME280;40838;50.676;7.838;2023-04-20T09:43:02;98314.34;;;0.59;100.00
54936;BME280;40838;50.676;7.838;2023-04-20T09:45:30;98316.25;;;0.77;100.00
54936;BME280;40838;50.676;7.838;2023-04-20T09:47:57;98330.13;;;0.52;100.00
54936;BME280;40838;50.676;7.838;2023-04-20T09:50:25;98323.84;;;0.22;100.00
54936;BME280;40838;50.676;7.838;2023-04-20T09:52:54;98323.78;;;1.17;100.00
54936;BME280;40838;50.676;7.838;2023-04-20T09:55:22;98326.69;;;0.52;100.00
54936;BME280;40838;50.676;7.838;2023-04-20T09:57:51;98331.91;;;0.58;100.00
54936;BME280;40838;50.676;7.838;2023-04-20T10:00:20;98324.25;;;0.57;100.00
54936;BME280;40838;50.676;7.838;2023-04-20T10:02:48;98319.78;;;0.57;100.00
54936;BME280;40838;50.676;7.838;2023-04-20T10:05:15;98322.38;;;0.32;100.00
54936;BME280;40838;50.676;7.838;2023-04-20T10:07:43;98336.19;;;0.46;100.00
54936;BME280;40838;50.676;7.838;2023-04-20T10:10:12;98327.94;;;0.49;100.00
54936;BME280;40838;50.676;7.838;2023-04-20T10:12:47;98314.53;;;0.32;100.00
54936;BME280;40838;50.676;7.838;2023-04-20T10:15:14;98322.34;;;0.71;100.00
54936;BME280;40838;50.676;7.838;2023-04-20T10:17:41;98322.34;;;1.39;100.00
54936;BME280;40838;50.676;7.838;2023-04-20T10:20:17;98317.88;;;0.71;100.00
54936;BME280;40838;50.676;7.838;2023-04-20T10:22:45;98339.09;;;0.38;100.00
54936;BME280;40838;50.676;7.838;2023-04-20T10:25:17;98324.28;;;0.50;100.00
54936;BME280;40838;50.676;7.838;2023-04-20T10:27:52;98314.31;;;0.91;100.00
54936;BME280;40838;50.676;7.838;2023-04-20T10:30:21;98316.84;;;1.22;100.00
54936;BME280;40838;50.676;7.838;2023-04-20T10:32:49;98327.31;;;1.47;100.00
54936;BME280;40838;50.676;7.838;2023-04-20T10:35:16;98326.31;;;0.48;100.00
54936;BME280;40838;50.676;7.838;2023-04-20T10:37:46;98325.56;;;0.41;100.00
54936;BME280;40838;50.676;7.838;2023-04-20T10:40:13;98317.94;;;0.65;100.00
54936;BME280;40838;50.676;7.838;2023-04-20T10:42:42;98307.94;;;1.67;100.00
54936;BME280;40838;50.676;7.838;2023-04-20T10:45:09;98317.59;;;1.30;100.00
54936;BME280;40838;50.676;7.838;2023-04-20T10:47:36;98314.75;;;0.88;100.00
54936;BME280;40838;50.676;7.838;2023-04-20T10:50:06;98304.22;;;1.13;100.00
54936;BME280;40838;50.676;7.838;2023-04-20T10:52:34;98302.38;;;1.38;100.00
54936;BME280;40838;50.676;7.838;2023-04-20T10:55:03;98296.59;;;2.03;100.00
54936;BME280;40838;50.676;7.838;2023-04-20T10:57:31;98303.75;;;1.96;100.00
54936;BME280;40838;50.676;7.838;2023-04-20T11:00:13;98296.28;;;2.11;100.00
54936;BME280;40838;50.676;7.838;2023-04-20T11:02:45;98294.19;;;1.83;100.00
54936;BME280;40838;50.676;7.838;2023-04-20T11:05:12;98301.88;;;1.85;100.00
54936;BME280;40838;50.676;7.838;2023-04-20T11:07:46;98307.53;;;2.00;100.00
54936;BME280;40838;50.676;7.838;2023-04-20T11:10:13;98305.81;;;1.76;100.00
54936;BME280;40838;50.676;7.838;2023-04-20T11:12:40;98297.56;;;1.54;100.00
54936;BME280;40838;50.676;7.838;2023-04-20T11:15:10;98295.50;;;1.92;100.00
54936;BME280;40838;50.676;7.838;2023-04-20T11:17:38;98299.91;;;1.00;100.00
54936;BME280;40838;50.676;7.838;2023-04-20T11:20:07;98287.16;;;1.95;100.00
54936;BME280;40838;50.676;7.838;2023-04-20T11:22:35;98302.38;;;1.93;100.00
54936;BME280;40838;50.676;7.838;2023-04-20T11:25:03;98288.84;;;2.38;100.00
54936;BME280;40838;50.676;7.838;2023-04-20T11:27:31;98282.38;;;2.53;100.00
54936;BME280;40838;50.676;7.838;2023-04-20T11:29:58;98274.31;;;2.06;100.00
54936;BME280;40838;50.676;7.838;2023-04-20T11:32:32;98279.66;;;2.71;100.00
54936;BME280;40838;50.676;7.838;2023-04-20T11:35:00;98280.72;;;2.82;100.00
54936;BME280;40838;50.676;7.838;2023-04-20T11:37:27;98272.66;;;2.53;100.00
54936;BME280;40838;50.676;7.838;2023-04-20T11:39:59;98277.84;;;2.00;100.00
54936;BME280;40838;50.676;7.838;2023-04-20T11:42:26;98263.88;;;2.71;100.00
54936;BME280;40838;50.676;7.838;2023-04-20T11:44:54;98258.38;;;3.43;100.00
54936;BME280;40838;50.676;7.838;2023-04-20T11:47:21;98256.09;;;3.35;100.00
54936;BME280;40838;50.676;7.838;2023-04-20T11:49:50;98246.25;;;4.11;100.00
54936;BME280;40838;50.676;7.838;2023-04-20T11:52:16;98258.56;;;4.22;100.00
54936;BME280;40838;50.676;7.838;2023-04-20T11:54:43;98253.41;;;3.99;100.00
54936;BME280;40838;50.676;7.838;2023-04-20T11:57:10;98245.59;;;3.23;100.00
54936;BME280;40838;50.676;7.838;2023-04-20T11:59:37;98239.13;;;3.54;100.00
54936;BME280;40838;50.676;7.838;2023-04-20T12:02:04;98221.16;;;3.51;100.00
54936;BME280;40838;50.676;7.838;2023-04-20T12:04:31;98239.28;;;3.36;100.00
54936;BME280;40838;50.676;7.838;2023-04-20T12:07:00;98237.38;;;4.17;100.00
54936;BME280;40838;50.676;7.838;2023-04-20T12:09:27;98237.94;;;3.10;100.00
54936;BME280;40838;50.676;7.838;2023-04-20T12:11:55;98243.97;;;4.03;100.00
54936;BME280;40838;50.676;7.838;2023-04-20T12:14:22;98227.41;;;3.62;100.00
54936;BME280;40838;50.676;7.838;2023-04-20T12:16:49;98234.03;;;3.36;100.00
54936;BME280;40838;50.676;7.838;2023-04-20T12:19:15;98225.28;;;3.47;100.00
54936;BME280;40838;50.676;7.838;2023-04-20T12:21:42;98214.03;;;3.92;100.00
54936;BME280;40838;50.676;7.838;2023-04-20T12:24:12;98213.88;;;4.61;100.00
54936;BME280;40838;50.676;7.838;2023-04-20T12:26:39;98212.31;;;3.58;100.00
54936;BME280;40838;50.676;7.838;2023-04-20T12:29:06;98214.31;;;4.25;100.00
54936;BME280;40838;50.676;7.838;2023-04-20T12:31:33;98208.44;;;3.89;100.00
54936;BME280;40838;50.676;7.838;2023-04-20T12:34:02;98209.06;;;3.96;100.00
54936;BME280;40838;50.676;7.838;2023-04-20T12:36:30;98203.78;;;3.27;100.00
54936;BME280;40838;50.676;7.838;2023-04-20T12:39:01;98204.31;;;3.52;100.00
54936;BME280;40838;50.676;7.838;2023-04-20T12:41:29;98197.94;;;4.22;100.00
54936;BME280;40838;50.676;7.838;2023-04-20T12:43:56;98196.38;;;4.55;100.00
54936;BME280;40838;50.676;7.838;2023-04-20T12:46:23;98191.50;;;4.30;100.00
54936;BME280;40838;50.676;7.838;2023-04-20T12:48:50;98191.78;;;3.71;100.00
54936;BME280;40838;50.676;7.838;2023-04-20T12:51:16;98193.53;;;3.83;100.00
54936;BME280;40838;50.676;7.838;2023-04-20T12:53:43;98188.78;;;4.59;100.00
54936;BME280;40838;50.676;7.838;2023-04-20T12:56:10;98187.34;;;4.06;100.00
54936;BME280;40838;50.676;7.838;2023-04-20T12:58:39;98188.75;;;3.51;100.00
54936;BME280;40838;50.676;7.838;2023-04-20T13:01:05;98198.00;;;3.65;100.00